CheckWX is a tool to help pilots better visualize weather data.  It is not intended as a substitute for an official pre-flight weather briefing.

18:14:50 UTC

KGZH METAR
Evergreen Regional / Middleton Field Airport
Evergreen, Alabama, USA
Current

22 mins ago

KGZH 211753Z AUTO VRB04KT 10SM OVC100 31/22 A3007 RMK AO2 SLP177 T03060217 10311 20233 58004 TSNO
Observed
Jul-21 @ 17:53 UTC
Wind
  • Variable at 4 KTS
Visibility
10 SM
Flight Rules
VFR
Cloud Levels
  • Overcast at 10,000' AGL
Temperature
31°C / 88°F
Dewpoint
22°C / 72°F
Heat Index
35°C / 95°F
Humidity
59%
Altimeter
30.07" Hg
Pressure
1018.32 hPa
Previous

1 hour ago

KGZH 211653Z AUTO 19003KT 10SM OVC100 31/21 A3007 RMK AO2 SLP180 T03060211 TSNO
Observed
Jul-21 @ 16:53 UTC
Wind
  • 190° at 3 KTS
Visibility
10 SM
Flight Rules
VFR
Cloud Levels
  • Overcast at 10,000' AGL
Temperature
31°C / 88°F
Dewpoint
21°C / 70°F
Heat Index
34°C / 93°F
Humidity
55%
Altimeter
30.07" Hg
Pressure
1018.32 hPa
Previous

2 hours ago

KGZH 211553Z AUTO 14003KT 10SM FEW021 SCT026 BKN100 29/22 A3007 RMK AO2 SLP180 T02940217 TSNO
Observed
Jul-21 @ 15:53 UTC
Wind
  • 140° at 3 KTS
Visibility
10 SM
Flight Rules
VFR
Cloud Levels
  • Few at 2,100' AGL
  • Scattered at 2,600' AGL
  • Broken at 10,000' AGL
Temperature
29°C / 84°F
Dewpoint
22°C / 72°F
Heat Index
32°C / 89°F
Humidity
66%
Altimeter
30.07" Hg
Pressure
1018.32 hPa